Time;durP1;ratioP1;P1;durP2;ratioP2;P2;SDS_P1;SDS_P2;PMS_P1;PMS_P2;Temp;Humidity;BMP_temperature;BMP_pressure;BME280_temperature;BME280_humidity;BME280_pressure;Samples;Min_cycle;Max_cycle;Signal;HPM_P1;HPM_P2
2023/07/15 00:01:25;;;;;;;6.30;4.00;;;21.00;99.90;;;;;;5047492;28;20057;-76
2023/07/15 00:03:52;;;;;;;6.38;3.97;;;21.00;99.90;;;;;;5043843;28;20056;-77
2023/07/15 00:06:21;;;;;;;8.02;4.05;;;21.00;99.90;;;;;;5022925;28;20048;-77
2023/07/15 00:08:48;;;;;;;5.95;3.65;;;21.00;99.90;;;;;;5040918;28;20045;-76
2023/07/15 00:11:28;;;;;;;7.28;4.13;;;20.90;99.90;;;;;;5045534;28;20041;-76
2023/07/15 00:13:56;;;;;;;6.18;3.63;;;20.90;99.90;;;;;;5052115;28;20037;-76
2023/07/15 00:16:22;;;;;;;7.20;3.70;;;20.90;99.90;;;;;;5044204;28;20056;-77
2023/07/15 00:18:48;;;;;;;6.70;3.83;;;20.90;99.90;;;;;;5028895;28;20083;-75
2023/07/15 00:21:20;;;;;;;7.05;3.85;;;20.80;99.90;;;;;;5033087;28;20045;-77
2023/07/15 00:23:48;;;;;;;6.65;3.60;;;20.80;99.90;;;;;;5051618;28;20765;-77
2023/07/15 00:26:15;;;;;;;6.40;3.50;;;20.80;99.90;;;;;;5049166;28;21812;-77
2023/07/15 00:28:40;;;;;;;5.10;3.60;;;20.80;99.90;;;;;;5026389;28;20056;-76
2023/07/15 00:31:13;;;;;;;6.35;3.72;;;20.80;99.90;;;;;;5027955;28;20303;-76
2023/07/15 00:33:40;;;;;;;5.22;3.38;;;20.80;99.90;;;;;;5051342;28;20183;-76
2023/07/15 00:36:06;;;;;;;6.45;3.53;;;20.80;99.90;;;;;;5051160;28;20040;-76
2023/07/15 00:38:34;;;;;;;7.00;4.15;;;20.80;99.90;;;;;;5045383;28;20542;-76
2023/07/15 00:41:00;;;;;;;7.70;3.58;;;20.80;99.90;;;;;;5048743;28;20086;-76
2023/07/15 00:46:21;;;;;;;6.45;3.60;;;20.80;99.90;;;;;;5049255;28;20051;-76
2023/07/15 00:49:03;;;;;;;6.93;3.63;;;20.70;99.90;;;;;;5052947;28;20048;-76
2023/07/15 00:51:33;;;;;;;5.97;3.22;;;20.80;99.90;;;;;;5049980;28;20037;-76
2023/07/15 00:54:00;;;;;;;13.02;3.45;;;20.80;99.90;;;;;;5054451;28;20048;-76
2023/07/15 00:56:27;;;;;;;8.70;3.47;;;20.80;99.90;;;;;;5046310;28;20492;-77
2023/07/15 00:58:53;;;;;;;5.85;3.45;;;20.80;99.90;;;;;;5052618;28;20044;-76
2023/07/15 01:01:19;;;;;;;9.50;3.70;;;20.80;99.90;;;;;;5025579;28;20075;-75
2023/07/15 01:03:45;;;;;;;7.68;3.50;;;20.80;99.90;;;;;;5046022;28;20144;-76
2023/07/15 01:06:14;;;;;;;4.30;3.30;;;20.80;99.90;;;;;;5051052;28;20044;-76
2023/07/15 01:08:40;;;;;;;6.47;3.65;;;20.90;99.90;;;;;;5051409;28;20047;-75
2023/07/15 01:11:06;;;;;;;5.93;4.00;;;20.90;99.90;;;;;;5055019;28;20573;-76
2023/07/15 01:13:33;;;;;;;9.43;3.53;;;20.90;99.90;;;;;;5061757;28;20055;-76
2023/07/15 01:15:59;;;;;;;5.95;3.22;;;20.90;99.90;;;;;;5050160;28;20124;-76
2023/07/15 01:18:24;;;;;;;7.05;3.50;;;20.90;99.90;;;;;;5051307;28;20473;-76
2023/07/15 01:20:53;;;;;;;5.65;3.30;;;20.90;99.90;;;;;;5048793;28;20036;-76
2023/07/15 01:23:18;;;;;;;6.95;3.40;;;20.90;99.90;;;;;;5050329;28;20890;-76
2023/07/15 01:25:44;;;;;;;6.55;3.15;;;20.90;99.90;;;;;;5045600;28;20053;-76
2023/07/15 01:28:10;;;;;;;6.55;4.05;;;20.90;99.90;;;;;;5037694;28;20053;-76
2023/07/15 01:30:36;;;;;;;7.35;3.33;;;20.90;99.90;;;;;;5049650;28;20044;-76
2023/07/15 01:33:01;;;;;;;7.10;3.72;;;20.90;99.90;;;;;;5051252;28;20052;-76
2023/07/15 01:35:27;;;;;;;6.18;3.60;;;20.90;99.90;;;;;;5044148;28;20048;-76
2023/07/15 01:37:52;;;;;;;5.88;3.78;;;20.90;99.90;;;;;;5034170;28;20712;-76
2023/07/15 01:40:21;;;;;;;5.72;3.17;;;20.90;99.90;;;;;;5047962;28;20083;-76
2023/07/15 01:42:46;;;;;;;6.95;3.60;;;20.90;99.90;;;;;;5030539;28;20072;-76
2023/07/15 01:45:12;;;;;;;6.70;3.40;;;20.90;99.90;;;;;;5039614;28;20205;-76
2023/07/15 01:47:38;;;;;;;5.32;3.22;;;20.80;99.90;;;;;;5028080;28;20040;-75
2023/07/15 01:50:06;;;;;;;8.93;3.50;;;20.80;99.90;;;;;;5053452;28;20048;-76
2023/07/15 01:52:32;;;;;;;5.55;3.28;;;20.90;99.90;;;;;;5033997;28;20403;-76
2023/07/15 01:54:58;;;;;;;4.57;3.08;;;20.90;99.90;;;;;;5048863;28;20082;-76
2023/07/15 01:57:26;;;;;;;5.50;3.30;;;20.80;99.90;;;;;;5049828;28;20036;-75
2023/07/15 01:59:57;;;;;;;4.78;3.28;;;20.80;99.90;;;;;;5043298;28;21997;-73
2023/07/15 02:02:26;;;;;;;6.18;3.10;;;20.80;99.90;;;;;;5045996;28;20052;-78
2023/07/15 02:04:52;;;;;;;5.97;3.40;;;20.80;99.90;;;;;;5032911;28;20048;-77
2023/07/15 02:07:18;;;;;;;5.95;3.17;;;20.80;99.90;;;;;;5045315;28;20507;-76
2023/07/15 02:09:43;;;;;;;4.43;3.25;;;20.70;99.90;;;;;;5046669;28;20055;-76
2023/07/15 02:12:09;;;;;;;6.72;3.50;;;20.70;99.90;;;;;;5048792;28;20445;-77
2023/07/15 02:14:38;;;;;;;5.78;3.20;;;20.70;99.90;;;;;;5058582;28;20044;-77
2023/07/15 02:17:05;;;;;;;3.83;3.03;;;20.70;99.90;;;;;;5035172;28;20052;-77
2023/07/15 02:19:31;;;;;;;5.07;3.20;;;20.60;99.90;;;;;;5051688;28;20056;-76
2023/07/15 02:21:57;;;;;;;7.35;3.38;;;20.60;99.90;;;;;;5050958;28;20052;-76
2023/07/15 02:24:23;;;;;;;7.18;3.58;;;20.60;99.90;;;;;;5050487;28;20052;-76
2023/07/15 02:26:49;;;;;;;5.05;3.15;;;20.60;99.90;;;;;;5052532;28;20056;-77
2023/07/15 02:29:14;;;;;;;6.80;3.28;;;20.60;99.90;;;;;;5051307;28;20076;-76
2023/07/15 02:31:42;;;;;;;5.18;3.25;;;20.60;99.90;;;;;;5029895;28;20050;-76
2023/07/15 02:34:08;;;;;;;4.53;2.80;;;20.50;99.90;;;;;;5047816;28;20102;-77
2023/07/15 02:36:35;;;;;;;6.55;3.28;;;20.50;99.90;;;;;;5050629;28;20025;-76
2023/07/15 02:39:01;;;;;;;5.45;2.88;;;20.50;99.90;;;;;;5044725;28;20056;-76
2023/07/15 02:41:26;;;;;;;6.97;3.17;;;20.50;99.90;;;;;;5047396;28;20412;-77
2023/07/15 02:43:52;;;;;;;7.78;3.20;;;20.50;99.90;;;;;;5046151;28;20041;-76
2023/07/15 02:46:17;;;;;;;7.15;3.10;;;20.50;99.90;;;;;;5048589;28;20086;-77
2023/07/15 02:48:43;;;;;;;5.15;3.03;;;20.50;99.90;;;;;;5054120;28;20040;-76
2023/07/15 02:51:09;;;;;;;6.85;3.20;;;20.50;99.90;;;;;;5047841;28;20131;-75
2023/07/15 02:53:34;;;;;;;7.35;3.53;;;20.50;99.90;;;;;;5049026;28;20103;-77
2023/07/15 02:56:00;;;;;;;6.88;3.10;;;20.50;99.90;;;;;;5049535;28;20056;-78
2023/07/15 02:58:26;;;;;;;6.30;2.97;;;20.50;99.90;;;;;;5045709;28;20103;-76
2023/07/15 03:00:52;;;;;;;6.65;3.20;;;20.50;99.90;;;;;;5022492;28;20601;-74
2023/07/15 03:03:18;;;;;;;5.18;3.05;;;20.40;99.90;;;;;;5022517;28;20044;-75
2023/07/15 03:05:47;;;;;;;6.87;2.70;;;20.40;99.90;;;;;;5025523;28;20457;-76
2023/07/15 03:08:14;;;;;;;4.88;3.30;;;20.40;99.90;;;;;;5033602;28;20561;-76
2023/07/15 03:10:43;;;;;;;7.95;3.17;;;20.40;99.90;;;;;;5029524;28;20053;-75
2023/07/15 03:13:09;;;;;;;5.47;3.42;;;20.40;99.90;;;;;;5034205;28;20627;-75
2023/07/15 03:15:35;;;;;;;7.15;3.25;;;20.30;99.90;;;;;;5031167;28;20049;-75
2023/07/15 03:18:02;;;;;;;5.97;3.17;;;20.30;99.90;;;;;;5032631;28;20074;-75
2023/07/15 03:20:28;;;;;;;6.97;3.22;;;20.30;99.90;;;;;;5015121;28;20381;-76
2023/07/15 03:22:54;;;;;;;6.78;3.22;;;20.30;99.90;;;;;;5013140;28;20033;-76
2023/07/15 03:25:21;;;;;;;5.25;3.00;;;20.30;99.90;;;;;;5027562;28;20510;-75
2023/07/15 03:27:47;;;;;;;5.43;2.92;;;20.20;99.90;;;;;;5033138;28;20997;-75
2023/07/15 03:30:13;;;;;;;4.32;2.90;;;20.20;99.90;;;;;;5032879;28;20176;-75
2023/07/15 03:32:40;;;;;;;6.07;2.90;;;20.20;99.90;;;;;;5031602;28;22084;-74
2023/07/15 03:35:10;;;;;;;5.10;3.22;;;20.20;99.90;;;;;;5008934;28;20544;-75
2023/07/15 03:37:38;;;;;;;6.32;3.25;;;20.20;99.90;;;;;;5025550;28;21531;-76
2023/07/15 03:40:08;;;;;;;4.72;3.17;;;20.20;99.90;;;;;;5027328;28;20056;-76
2023/07/15 03:42:34;;;;;;;6.68;3.70;;;20.20;99.90;;;;;;5020803;28;20061;-76
2023/07/15 03:45:00;;;;;;;8.23;3.30;;;20.10;99.90;;;;;;5014646;28;20103;-74
2023/07/15 03:47:26;;;;;;;5.15;3.22;;;20.10;99.90;;;;;;5003216;28;20045;-76
2023/07/15 03:49:52;;;;;;;4.93;3.00;;;20.10;99.90;;;;;;5013189;28;20048;-76
2023/07/15 03:52:17;;;;;;;5.28;3.05;;;20.10;99.90;;;;;;5030781;28;20041;-76
2023/07/15 03:54:43;;;;;;;6.50;3.33;;;20.10;99.90;;;;;;5028204;28;20068;-77
2023/07/15 03:57:09;;;;;;;4.90;3.15;;;20.10;99.90;;;;;;5025880;28;20484;-76
2023/07/15 03:59:35;;;;;;;4.18;2.80;;;20.10;99.90;;;;;;5006102;28;20045;-76
2023/07/15 04:02:02;;;;;;;6.75;3.20;;;20.10;99.90;;;;;;5028907;28;20178;-75
2023/07/15 04:04:28;;;;;;;5.45;3.10;;;20.10;99.90;;;;;;5040466;28;20495;-76
2023/07/15 04:06:54;;;;;;;6.03;2.90;;;20.10;99.90;;;;;;5028814;28;20106;-76
2023/07/15 04:09:20;;;;;;;4.60;3.10;;;20.10;99.90;;;;;;5001156;28;20040;-76
2023/07/15 04:11:46;;;;;;;5.13;3.00;;;20.10;99.90;;;;;;5008817;28;20090;-75
2023/07/15 04:14:12;;;;;;;7.18;3.30;;;20.00;99.90;;;;;;5032014;28;20048;-76
2023/07/15 04:16:41;;;;;;;4.32;2.55;;;20.10;99.90;;;;;;5027886;28;20045;-76
2023/07/15 04:19:06;;;;;;;4.65;3.05;;;20.10;99.90;;;;;;5018649;28;20128;-76
2023/07/15 04:21:32;;;;;;;7.75;3.50;;;20.10;99.90;;;;;;5025948;28;20047;-76
2023/07/15 04:23:58;;;;;;;5.30;2.92;;;20.00;99.90;;;;;;5024347;28;20048;-75
2023/07/15 04:26:25;;;;;;;6.82;2.90;;;20.10;99.90;;;;;;5032589;28;20037;-75
2023/07/15 04:28:51;;;;;;;;;;;20.10;99.90;;;;;;5004909;28;20045;-75
2023/07/15 04:31:18;;;;;;;7.57;2.90;;;20.10;99.90;;;;;;5032745;28;19956;-75
2023/07/15 04:33:45;;;;;;;5.78;2.70;;;20.10;99.90;;;;;;5030749;28;20303;-75
2023/07/15 04:36:10;;;;;;;;;;;20.10;99.90;;;;;;5031917;28;20095;-74
2023/07/15 04:38:36;;;;;;;5.13;3.00;;;20.10;99.90;;;;;;5011252;28;20467;-75
2023/07/15 04:41:02;;;;;;;6.35;3.10;;;20.20;99.90;;;;;;5031089;28;20060;-75
2023/07/15 04:43:27;;;;;;;5.15;2.85;;;20.20;99.90;;;;;;5025129;28;20053;-75
2023/07/15 04:45:54;;;;;;;4.55;2.85;;;20.20;99.90;;;;;;5032732;28;20474;-75
2023/07/15 04:48:20;;;;;;;5.43;3.10;;;20.30;99.90;;;;;;5013465;28;20048;-75
2023/07/15 04:50:46;;;;;;;6.93;3.05;;;20.30;99.90;;;;;;5026949;28;20052;-75
2023/07/15 04:53:12;;;;;;;4.47;2.80;;;20.40;99.90;;;;;;5004480;28;20485;-76
2023/07/15 04:55:37;;;;;;;6.45;3.70;;;20.40;99.90;;;;;;5028955;28;20103;-76
2023/07/15 04:58:03;;;;;;;4.68;2.78;;;20.50;99.90;;;;;;5015677;28;20408;-76
2023/07/15 05:00:29;;;;;;;7.18;3.17;;;20.60;99.90;;;;;;5040726;28;20063;-75
2023/07/15 05:02:55;;;;;;;4.35;2.75;;;20.60;99.90;;;;;;5055254;28;20600;-75
2023/07/15 05:05:21;;;;;;;6.65;2.97;;;20.60;99.90;;;;;;5025256;28;20123;-76
2023/07/15 05:07:49;;;;;;;6.93;3.00;;;20.70;99.90;;;;;;5052323;28;20048;-75
2023/07/15 05:10:15;;;;;;;5.45;2.95;;;20.70;99.90;;;;;;5055569;28;20044;-74
2023/07/15 05:12:41;;;;;;;6.93;2.92;;;20.80;99.90;;;;;;5050368;28;20082;-75
2023/07/15 05:15:08;;;;;;;7.72;3.20;;;20.80;99.90;;;;;;5051948;28;20495;-75
2023/07/15 05:17:34;;;;;;;6.38;2.97;;;20.80;99.90;;;;;;5054468;28;20072;-75
2023/07/15 05:19:59;;;;;;;4.50;2.97;;;20.90;99.90;;;;;;5051759;28;20048;-75
2023/07/15 05:22:26;;;;;;;4.97;3.00;;;20.90;99.90;;;;;;5048927;28;20132;-74
2023/07/15 05:24:52;;;;;;;5.60;2.97;;;20.90;99.90;;;;;;5046434;28;20048;-74
2023/07/15 05:27:18;;;;;;;3.55;2.88;;;21.00;99.90;;;;;;5050515;28;20295;-74
2023/07/15 05:29:44;;;;;;;10.00;3.13;;;21.00;99.90;;;;;;5053817;28;20087;-75
2023/07/15 05:32:10;;;;;;;3.80;2.63;;;21.10;99.90;;;;;;5040530;28;20059;-72
2023/07/15 05:34:36;;;;;;;5.25;3.03;;;21.20;99.90;;;;;;5046278;28;20516;-72
2023/07/15 05:37:03;;;;;;;4.87;3.07;;;21.20;99.90;;;;;;5045123;28;20102;-70
2023/07/15 05:39:29;;;;;;;5.50;3.00;;;21.30;99.90;;;;;;5051053;28;20967;-70
2023/07/15 05:41:54;;;;;;;5.32;2.90;;;21.40;99.90;;;;;;5031656;28;20044;-71
2023/07/15 05:44:20;;;;;;;5.53;3.00;;;21.40;99.90;;;;;;5037168;28;21355;-69
2023/07/15 05:46:46;;;;;;;5.78;2.75;;;21.50;99.90;;;;;;5046734;28;20095;-70
2023/07/15 05:49:12;;;;;;;6.35;3.00;;;21.60;99.90;;;;;;5051815;28;20369;-70
2023/07/15 05:51:40;;;;;;;5.38;3.13;;;21.60;99.90;;;;;;5023208;28;20442;-71
2023/07/15 05:54:06;;;;;;;6.15;3.13;;;21.70;99.90;;;;;;5026078;28;20048;-71
2023/07/15 05:56:31;;;;;;;9.20;3.17;;;21.70;99.90;;;;;;5047546;28;20136;-69
2023/07/15 05:59:00;;;;;;;6.53;2.95;;;21.80;99.90;;;;;;5026675;28;20055;-73
2023/07/15 06:01:26;;;;;;;6.53;3.10;;;21.90;99.90;;;;;;5048461;28;21966;-70
2023/07/15 06:03:52;;;;;;;6.60;3.28;;;22.00;99.90;;;;;;5043509;28;20137;-70
2023/07/15 06:06:18;;;;;;;5.88;3.28;;;22.00;99.90;;;;;;5045363;28;20443;-70
2023/07/15 06:08:45;;;;;;;6.35;3.05;;;22.10;99.90;;;;;;5024815;28;20094;-70
2023/07/15 06:11:11;;;;;;;8.18;3.80;;;22.10;99.90;;;;;;5048361;28;20566;-72
2023/07/15 06:13:37;;;;;;;7.55;3.20;;;22.20;99.90;;;;;;5051585;28;20085;-70
2023/07/15 06:16:03;;;;;;;5.57;3.05;;;22.20;99.90;;;;;;5047559;28;20040;-72
2023/07/15 06:18:32;;;;;;;5.97;3.17;;;22.30;99.90;;;;;;5025825;28;21737;-72
2023/07/15 06:20:57;;;;;;;7.28;3.30;;;22.40;99.90;;;;;;5037784;28;20051;-72
2023/07/15 06:23:23;;;;;;;4.90;3.00;;;22.50;99.90;;;;;;5042178;28;20404;-72
2023/07/15 06:25:51;;;;;;;6.35;3.47;;;22.60;99.90;;;;;;5037891;28;20079;-72
2023/07/15 06:28:17;;;;;;;6.57;2.75;;;22.60;99.90;;;;;;5048014;28;20124;-70
2023/07/15 06:30:48;;;;;;;5.25;2.95;;;22.70;99.90;;;;;;5039412;28;20543;-72
2023/07/15 06:33:13;;;;;;;4.75;2.80;;;22.80;99.90;;;;;;5044232;28;21196;-71
2023/07/15 06:35:45;;;;;;;5.60;2.60;;;22.80;99.90;;;;;;5018832;28;20048;-70
2023/07/15 06:38:11;;;;;;;6.05;3.00;;;22.90;99.90;;;;;;5046335;28;20041;-70
2023/07/15 06:40:37;;;;;;;8.55;3.10;;;22.90;99.90;;;;;;5030378;28;20032;-70
2023/07/15 06:43:03;;;;;;;6.03;2.80;;;23.00;99.90;;;;;;5029183;28;20052;-73
2023/07/15 06:45:38;;;;;;;7.80;2.80;;;23.10;99.90;;;;;;5044626;28;20055;-73
2023/07/15 06:48:04;;;;;;;6.80;2.88;;;23.10;99.90;;;;;;5042727;28;20051;-72
2023/07/15 06:50:29;;;;;;;7.45;3.00;;;23.20;99.90;;;;;;5041726;28;20040;-72
2023/07/15 06:52:55;;;;;;;7.32;2.90;;;23.20;99.90;;;;;;5046227;28;20040;-71
2023/07/15 06:55:21;;;;;;;6.10;2.83;;;23.30;99.90;;;;;;5030343;28;20462;-71
2023/07/15 06:57:48;;;;;;;6.95;2.90;;;23.30;99.90;;;;;;5045272;28;20404;-70
2023/07/15 07:00:17;;;;;;;;;;;23.40;99.90;;;;;;5046581;28;20136;-71
2023/07/15 07:02:42;;;;;;;4.32;2.83;;;23.40;99.90;;;;;;5038871;28;19970;-72
2023/07/15 07:05:11;;;;;;;5.43;3.00;;;23.50;99.90;;;;;;5046511;28;20131;-72
2023/07/15 07:07:42;;;;;;;5.10;3.05;;;23.60;99.90;;;;;;5043382;28;20047;-71
2023/07/15 07:10:08;;;;;;;4.95;2.70;;;23.60;99.90;;;;;;5043510;28;20045;-72
2023/07/15 07:12:34;;;;;;;5.15;2.90;;;23.70;99.90;;;;;;5046358;28;20032;-72
2023/07/15 07:15:00;;;;;;;7.35;3.00;;;23.80;99.90;;;;;;5051106;28;20355;-73
2023/07/15 07:17:26;;;;;;;4.65;2.97;;;23.80;99.90;;;;;;5049692;28;20922;-74
2023/07/15 07:19:51;;;;;;;7.47;3.28;;;23.80;99.90;;;;;;5052625;28;20079;-71
2023/07/15 07:22:17;;;;;;;7.53;2.85;;;23.90;99.90;;;;;;5034721;28;20551;-73
2023/07/15 07:24:43;;;;;;;7.30;2.83;;;23.90;99.90;;;;;;5031922;28;20044;-74
2023/07/15 07:27:11;;;;;;;5.10;2.30;;;23.90;99.90;;;;;;5030130;28;20048;-75
2023/07/15 07:29:37;;;;;;;9.35;2.92;;;24.00;99.90;;;;;;5053042;28;21699;-71
2023/07/15 07:32:03;;;;;;;4.82;2.60;;;24.10;99.90;;;;;;5035740;28;20055;-74
2023/07/15 07:34:29;;;;;;;6.87;2.30;;;24.20;99.90;;;;;;5030367;28;20094;-72
2023/07/15 07:36:55;;;;;;;5.85;2.30;;;24.20;99.90;;;;;;5046506;28;20036;-76
2023/07/15 07:39:21;;;;;;;4.95;2.40;;;24.30;99.90;;;;;;5046174;28;20045;-75
2023/07/15 07:41:47;;;;;;;7.13;2.55;;;24.40;99.90;;;;;;5052534;28;20515;-73
2023/07/15 07:44:13;;;;;;;3.35;2.20;;;24.40;99.90;;;;;;5033917;28;20110;-77
2023/07/15 07:46:38;;;;;;;4.70;2.20;;;24.50;99.90;;;;;;5053167;28;20086;-78
2023/07/15 07:49:04;;;;;;;3.65;2.17;;;24.50;99.90;;;;;;5055770;28;20098;-75
2023/07/15 07:51:29;;;;;;;5.80;2.40;;;24.60;99.90;;;;;;5047974;28;20037;-76
2023/07/15 07:53:55;;;;;;;6.13;2.60;;;24.60;99.90;;;;;;5046886;28;20101;-79
2023/07/15 07:56:23;;;;;;;4.05;2.42;;;24.70;99.90;;;;;;5046198;28;20428;-75
2023/07/15 07:58:54;;;;;;;3.90;2.13;;;24.70;99.90;;;;;;5030280;28;20040;-76
2023/07/15 08:01:31;;;;;;;4.65;2.10;;;24.80;99.90;;;;;;5096425;27;20120;-73
2023/07/15 08:03:57;;;;;;;7.65;2.10;;;24.90;99.90;;;;;;5062629;28;20039;-76
2023/07/15 08:06:24;;;;;;;3.75;1.83;;;24.90;99.90;;;;;;5080949;28;20079;-76
2023/07/15 08:08:50;;;;;;;5.68;2.08;;;25.00;99.90;;;;;;5079075;28;20040;-74
2023/07/15 08:11:16;;;;;;;6.40;2.33;;;25.10;99.90;;;;;;5057256;28;20637;-75
2023/07/15 08:13:42;;;;;;;3.13;1.97;;;25.20;99.90;;;;;;5063467;28;20048;-76
2023/07/15 08:16:30;;;;;;;3.13;1.95;;;25.20;99.90;;;;;;5059538;28;20154;-71
2023/07/15 08:18:57;;;;;;;5.13;1.85;;;25.30;99.90;;;;;;5075876;28;20093;-72
2023/07/15 08:21:22;;;;;;;2.88;2.00;;;25.30;99.90;;;;;;5060332;28;20055;-78
2023/07/15 08:23:48;;;;;;;5.45;2.20;;;25.40;99.90;;;;;;5076685;28;21440;-77
2023/07/15 08:26:14;;;;;;;3.83;2.28;;;25.40;99.90;;;;;;5071592;28;20043;-76
2023/07/15 08:28:39;;;;;;;5.88;2.22;;;25.50;99.90;;;;;;5071161;28;20051;-79
2023/07/15 08:31:05;;;;;;;4.40;2.10;;;25.60;99.90;;;;;;5074957;28;20048;-76
2023/07/15 08:33:31;;;;;;;4.70;2.20;;;25.60;99.90;;;;;;5066344;28;20121;-79
2023/07/15 08:35:56;;;;;;;3.00;2.05;;;25.70;99.90;;;;;;5074509;28;20559;-76
2023/07/15 08:38:22;;;;;;;4.93;2.07;;;25.80;99.90;;;;;;5055594;28;20066;-77
2023/07/15 08:40:50;;;;;;;4.30;2.10;;;25.90;99.90;;;;;;5076966;28;20044;-79
2023/07/15 08:43:17;;;;;;;4.70;2.35;;;26.00;99.90;;;;;;5073873;28;20044;-73
2023/07/15 08:45:43;;;;;;;7.63;2.40;;;26.00;99.90;;;;;;5084183;28;20048;-76
2023/07/15 08:48:12;;;;;;;5.85;2.60;;;26.10;99.90;;;;;;5080309;28;20561;-77
2023/07/15 08:50:39;;;;;;;5.47;2.45;;;26.10;99.90;;;;;;5072188;28;20048;-75
2023/07/15 08:53:04;;;;;;;4.20;2.10;;;26.00;99.90;;;;;;5072675;28;20067;-76
2023/07/15 08:55:30;;;;;;;3.10;1.90;;;26.10;99.90;;;;;;5073680;28;20465;-77
2023/07/15 08:57:59;;;;;;;4.87;2.07;;;26.10;99.90;;;;;;5058484;28;20048;-75
2023/07/15 09:00:25;;;;;;;5.65;2.08;;;26.20;99.90;;;;;;5070455;28;20060;-75
2023/07/15 09:02:51;;;;;;;2.40;1.87;;;26.10;99.90;;;;;;5052655;28;20094;-76
2023/07/15 09:05:17;;;;;;;3.85;2.42;;;26.10;99.90;;;;;;5059383;28;20922;-76
2023/07/15 09:07:51;;;;;;;3.00;2.00;;;26.20;99.90;;;;;;5072833;28;20047;-75
2023/07/15 09:10:17;;;;;;;4.90;2.28;;;26.20;99.90;;;;;;5054625;28;20047;-74
2023/07/15 09:12:54;;;;;;;6.07;2.58;;;26.30;99.90;;;;;;5054160;28;20032;-74
2023/07/15 09:15:20;;;;;;;5.60;2.30;;;26.30;99.90;;;;;;5065756;28;20123;-76
2023/07/15 09:17:59;;;;;;;8.60;2.70;;;26.40;99.90;;;;;;5042569;28;20048;-75
2023/07/15 09:20:26;;;;;;;4.45;2.28;;;26.50;99.90;;;;;;5042059;28;20052;-74
2023/07/15 09:22:59;;;;;;;6.70;2.30;;;26.60;99.90;;;;;;5060146;28;20057;-76
2023/07/15 09:25:25;;;;;;;5.35;2.47;;;26.60;99.90;;;;;;5061927;28;20126;-74
2023/07/15 09:27:52;;;;;;;6.95;2.20;;;26.60;99.90;;;;;;5064520;28;20060;-78
2023/07/15 09:30:18;;;;;;;;;;;26.60;99.90;;;;;;5067269;28;20058;-74
2023/07/15 09:32:44;;;;;;;7.18;2.45;;;26.70;99.90;;;;;;5070374;28;20387;-76
2023/07/15 09:35:11;;;;;;;4.33;2.17;;;26.80;99.90;;;;;;5045049;28;20045;-76
2023/07/15 09:37:37;;;;;;;4.05;2.28;;;27.00;99.90;;;;;;5065999;28;20437;-75
2023/07/15 09:40:08;;;;;;;7.03;2.75;;;27.10;99.90;;;;;;5060371;28;20048;-77
2023/07/15 09:42:54;;;;;;;4.22;1.90;;;27.10;99.90;;;;;;5059978;28;20114;-75
2023/07/15 09:45:33;;;;;;;6.20;1.90;;;27.10;99.90;;;;;;5046619;28;20032;-74
2023/07/15 09:48:00;;;;;;;5.57;2.05;;;27.00;99.90;;;;;;5057061;28;20299;-76
2023/07/15 09:50:27;;;;;;;5.93;1.88;;;27.00;99.90;;;;;;5039434;28;20103;-77
2023/07/15 09:52:55;;;;;;;5.20;2.28;;;27.00;99.90;;;;;;5047235;28;20079;-76
2023/07/15 09:55:24;;;;;;;3.33;1.85;;;27.00;99.90;;;;;;5037388;28;20127;-75
2023/07/15 09:58:00;;;;;;;3.67;1.83;;;27.00;99.70;;;;;;5044250;28;20419;-77
2023/07/15 10:00:31;;;;;;;6.15;2.17;;;27.00;99.30;;;;;;5055622;28;22097;-76
2023/07/15 10:02:59;;;;;;;2.72;1.90;;;26.90;99.70;;;;;;5062445;28;20151;-76
2023/07/15 10:05:26;;;;;;;5.47;2.00;;;26.80;99.60;;;;;;5055377;28;20044;-75
2023/07/15 10:07:52;;;;;;;;;;;26.80;99.70;;;;;;5059573;28;20140;-76
2023/07/15 10:10:20;;;;;;;2.80;1.83;;;26.80;99.90;;;;;;5045089;28;20683;-76
2023/07/15 10:12:47;;;;;;;5.20;1.65;;;26.70;99.90;;;;;;5063892;28;20428;-74
2023/07/15 10:15:13;;;;;;;4.10;1.70;;;26.70;99.90;;;;;;5068500;28;20044;-75
2023/07/15 10:17:39;;;;;;;4.47;2.13;;;26.60;99.90;;;;;;5060346;28;20040;-73
2023/07/15 10:20:12;;;;;;;3.63;2.33;;;26.50;99.90;;;;;;5059189;28;20056;-73
2023/07/15 10:22:40;;;;;;;2.67;1.60;;;26.60;99.90;;;;;;5040041;28;20044;-73
2023/07/15 10:25:09;;;;;;;4.07;1.92;;;26.50;99.90;;;;;;5062554;28;20057;-71
2023/07/15 10:27:36;;;;;;;4.22;1.92;;;26.50;99.90;;;;;;5042011;28;20049;-75
2023/07/15 10:30:28;;;;;;;4.15;1.95;;;26.60;99.90;;;;;;5040424;28;20048;-73
2023/07/15 10:33:00;;;;;;;4.53;1.80;;;26.60;99.90;;;;;;5043687;28;20056;-72
2023/07/15 10:35:47;;;;;;;4.82;1.80;;;26.70;99.90;;;;;;5058702;28;20143;-71
2023/07/15 10:38:29;;;;;;;;;;;26.70;99.90;;;;;;5042050;28;20135;-72
2023/07/15 10:41:01;;;;;;;4.88;1.75;;;26.60;99.90;;;;;;5051977;28;19923;-72
2023/07/15 10:43:33;;;;;;;4.60;1.70;;;26.60;99.90;;;;;;5045491;28;20055;-76
2023/07/15 10:46:09;;;;;;;5.55;1.90;;;26.40;99.90;;;;;;5049395;28;20101;-74
2023/07/15 10:48:36;;;;;;;3.83;1.90;;;26.40;99.90;;;;;;5041543;28;20078;-73
2023/07/15 10:51:11;;;;;;;6.57;1.95;;;26.20;99.90;;;;;;5058824;28;20150;-73
2023/07/15 10:53:38;;;;;;;5.30;2.20;;;26.10;99.90;;;;;;5055073;28;20914;-71
2023/07/15 10:56:07;;;;;;;8.07;2.30;;;26.10;99.90;;;;;;5049448;28;20295;-70
2023/07/15 10:58:34;;;;;;;4.88;2.13;;;26.00;99.90;;;;;;5062263;28;20052;-69
2023/07/15 11:01:07;;;;;;;6.05;2.20;;;26.10;99.90;;;;;;5058048;28;20048;-72
2023/07/15 11:03:38;;;;;;;6.40;2.47;;;26.20;99.90;;;;;;5064278;28;20523;-77
2023/07/15 11:06:04;;;;;;;6.10;2.40;;;26.30;99.90;;;;;;5060714;28;20052;-76
2023/07/15 11:08:31;;;;;;;4.57;1.98;;;26.60;99.90;;;;;;5037720;28;20060;-76
2023/07/15 11:11:01;;;;;;;;;;;26.70;99.90;;;;;;5061128;28;20049;-74
2023/07/15 11:13:27;;;;;;;4.60;1.83;;;26.90;99.90;;;;;;5054915;28;21577;-77
2023/07/15 11:15:54;;;;;;;3.90;2.20;;;26.90;99.90;;;;;;5065379;28;20511;-77
2023/07/15 11:18:21;;;;;;;3.92;2.38;;;26.90;99.90;;;;;;5056885;28;20823;-75
2023/07/15 11:20:52;;;;;;;5.40;1.90;;;26.80;99.90;;;;;;5042731;28;20063;-76
2023/07/15 11:23:19;;;;;;;4.43;2.50;;;26.80;99.90;;;;;;5057490;28;20048;-75
2023/07/15 11:25:45;;;;;;;3.70;1.90;;;26.80;99.90;;;;;;5040817;28;20076;-73
2023/07/15 11:28:11;;;;;;;3.90;2.03;;;26.70;99.90;;;;;;5061301;28;20058;-74
2023/07/15 11:30:39;;;;;;;3.75;2.03;;;26.70;99.90;;;;;;5059432;28;20126;-74
2023/07/15 11:33:06;;;;;;;5.63;2.33;;;26.60;99.90;;;;;;5053500;28;20047;-74
2023/07/15 11:35:37;;;;;;;3.72;2.10;;;26.50;99.90;;;;;;5057903;28;20048;-74
2023/07/15 11:38:12;;;;;;;4.57;2.08;;;26.50;99.90;;;;;;5057903;28;20044;-77
2023/07/15 11:40:58;;;;;;;6.32;2.25;;;26.40;99.90;;;;;;5052920;28;20056;-74
2023/07/15 11:43:26;;;;;;;3.83;1.90;;;26.40;99.90;;;;;;5058833;28;21187;-74
2023/07/15 11:45:59;;;;;;;6.60;2.38;;;26.40;99.90;;;;;;5060625;28;20041;-74
2023/07/15 11:48:27;;;;;;;6.15;2.35;;;26.30;99.90;;;;;;5037750;28;20106;-75
2023/07/15 11:50:57;;;;;;;6.07;2.10;;;26.30;99.90;;;;;;5052977;28;20052;-75
2023/07/15 11:53:34;;;;;;;3.95;2.00;;;26.30;99.90;;;;;;5035193;28;20083;-75
2023/07/15 11:56:00;;;;;;;4.97;2.00;;;26.30;99.90;;;;;;5043079;28;20491;-74
2023/07/15 11:58:45;;;;;;;4.20;2.13;;;26.30;99.90;;;;;;5063877;28;20059;-73
2023/07/15 12:01:13;;;;;;;3.58;1.63;;;26.20;99.90;;;;;;5053766;28;20052;-74
2023/07/15 12:03:42;;;;;;;3.95;1.92;;;26.10;99.90;;;;;;5040829;28;20113;-75
2023/07/15 12:06:16;;;;;;;3.25;2.10;;;26.10;99.90;;;;;;5057272;28;20054;-75
2023/07/15 12:09:02;;;;;;;5.20;2.10;;;26.00;99.90;;;;;;5035328;28;20131;-76
2023/07/15 12:11:29;;;;;;;;;;;26.00;99.90;;;;;;5061451;28;20111;-73
2023/07/15 12:13:55;;;;;;;5.20;2.17;;;25.90;99.90;;;;;;5054198;28;19959;-76
2023/07/15 12:16:21;;;;;;;7.27;2.40;;;25.90;99.90;;;;;;5061352;28;20130;-74
2023/07/15 12:18:47;;;;;;;;;;;26.00;99.90;;;;;;5061834;28;20047;-74
2023/07/15 12:21:13;;;;;;;3.97;2.53;;;26.00;99.90;;;;;;5044073;28;20000;-73
2023/07/15 12:23:38;;;;;;;5.50;2.33;;;26.10;99.90;;;;;;5070970;28;20048;-73
2023/07/15 12:26:04;;;;;;;4.47;2.77;;;26.20;99.90;;;;;;5039955;28;20095;-72
2023/07/15 12:28:30;;;;;;;6.97;3.10;;;26.20;99.90;;;;;;5058879;28;20132;-76
2023/07/15 12:30:56;;;;;;;4.47;2.30;;;26.30;99.90;;;;;;5050771;28;20052;-75
2023/07/15 12:33:21;;;;;;;6.10;2.70;;;26.30;99.90;;;;;;5044071;28;20098;-74
2023/07/15 12:35:47;;;;;;;3.17;2.30;;;26.30;99.90;;;;;;5058146;28;20041;-73
2023/07/15 12:38:13;;;;;;;3.97;2.40;;;26.30;99.90;;;;;;5056695;28;20048;-74
2023/07/15 12:40:40;;;;;;;5.00;2.33;;;26.20;99.90;;;;;;5057321;28;20040;-75
2023/07/15 12:43:06;;;;;;;8.45;2.47;;;26.20;99.90;;;;;;5063860;28;20048;-74
2023/07/15 12:45:32;;;;;;;5.30;2.30;;;26.00;99.90;;;;;;5063533;28;20450;-74
2023/07/15 12:47:57;;;;;;;5.70;2.13;;;26.00;99.90;;;;;;5062544;28;20103;-75
2023/07/15 12:50:23;;;;;;;3.67;2.00;;;25.90;99.90;;;;;;5041297;28;20049;-77
2023/07/15 12:52:51;;;;;;;6.23;1.90;;;25.80;99.90;;;;;;5067443;28;20036;-76